Latest Coastal Weather Observations for Rhyll

IDV60701

Issued at 3:31 am EDT Tuesday 27 January 2015 (issued every 10 minutes, with the page automatically refreshed every 10 minutes)

About coastal observations | Map of coastal stations | Coastal observations for VIC | Marine services | Other Formats
Station Details ID: 086373 Name: RHYLL Lat: -38.46 Lon: 145.31 Height: 13.4 m
Data from the previous 72 hours. | See also: Recent months at Rhyll
Date/Time
EDT
Temp

°C
Wind Pressure Rain
since 9am
mm
Weather Cloud Vis
km
Sea
Height
m
Swell
Dir
 
Speed
knots
Gust
knots
hPa Trend Height
m
Period
s
Dir
27/03:30am 14.4 SE 6 11 1016.9 - 0.0 - - - - - - -
27/03:00am 14.4 SE 5 10 1016.9 - 0.0 - - - - - - -
27/02:30am 14.3 SSE 6 9 1017.1 - 0.0 - - - - - - -
27/02:00am 13.9 SSE 6 8 1017.4 - 0.0 - - - - - - -
27/01:30am 13.9 SSE 6 9 1017.6 - 0.0 - - - - - - -
27/01:00am 14.0 SSE 6 9 1017.8 - 0.0 - - - - - - -
27/12:30am 14.0 SSE 7 10 1018.0 - 0.0 - - - - - - -
27/12:00am 14.3 SSE 7 10 1018.0 - 0.0 - - - - - - -
 
Date/Time
EDT
Temp

°C
Wind Pressure Rain
since 9am
mm
Weather Cloud Vis
km
Sea
Height
m
Swell
Dir
 
Speed
knots
Gust
knots
hPa Trend Height
m
Period
s
Dir
26/11:30pm 14.4 SSE 8 11 1018.0 - 0.0 - - - - - - -
26/11:00pm 14.6 SSE 8 11 1018.3 - 0.0 - - - - - - -
26/10:30pm 14.8 SSE 7 10 1018.3 - 0.0 - - - - - - -
26/10:00pm 14.5 SSE 7 11 1018.2 - 0.0 - - - - - - -
26/09:30pm 14.9 SSE 8 12 1018.1 - 0.0 - - - - - - -
26/09:00pm 14.8 SSE 8 12 1017.9 - 0.0 - - - - - - -
26/08:30pm 15.2 S 7 12 1017.7 - 0.0 - - - - - - -
26/08:00pm 16.3 S 8 12 1017.4 - 0.0 - - - - - - -
26/07:30pm 17.2 S 7 11 1017.1 - 0.0 - - - - - - -
26/07:00pm 17.8 S 7 11 1016.7 - 0.0 - - - - - - -
26/06:30pm 18.5 S 8 12 1016.6 - 0.0 - - - - - - -
26/06:00pm 18.7 S 8 12 1016.5 - 0.0 - - - - - - -
26/05:30pm 18.8 S 8 13 1016.5 - 0.0 - - - - - - -
26/05:00pm 19.0 S 9 15 1016.9 - 0.0 - - - - - - -
26/04:30pm 20.3 S 8 12 1017.1 - 0.0 - - - - - - -
26/04:00pm 20.3 S 7 12 1016.9 - 0.0 - - - - - - -
26/03:30pm 20.5 S 8 12 1016.9 - 0.0 - - - - - - -
26/03:00pm 20.2 S 7 11 1016.8 - 0.0 - - - - - - -
26/02:30pm 20.7 S 7 12 1016.8 - 0.0 - - - - - - -
26/02:00pm 19.8 S 7 11 1016.9 - 0.0 - - - - - - -
26/01:30pm 20.0 S 7 11 1017.1 - 0.0 - - - - - - -
26/01:00pm 20.3 S 7 13 1017.4 - 0.0 - - - - - - -
26/12:30pm 20.1 S 7 12 1017.3 - 0.0 - - - - - - -
26/12:00pm 18.1 S 6 10 1017.3 - 0.0 - - - - - - -
26/11:30am 17.9 S 5 11 1017.2 - 0.0 - - - - - - -
26/11:00am 19.1 SSW 5 11 1017.1 - 0.0 - - - - - - -
26/10:30am 19.6 SSE 5 8 1017.1 - 0.0 - - - - - - -
26/10:00am 18.2 S 4 9 1016.7 - 0.0 - - - - - - -
26/09:30am 17.7 S 4 8 1016.7 - 0.0 - - - - - - -
26/09:00am 17.6 S 4 9 1016.5 - 0.0 - - - - - - -
26/08:30am 16.7 S 5 10 1016.2 - 0.0 - - - - - - -
26/08:00am 15.3 S 6 10 1015.7 - 0.0 - - - - - - -
26/07:30am 14.6 SSW 3 5 1015.3 - 0.0 - - - - - - -
26/07:00am 13.4 WNW 2 4 1015.2 - 0.0 - - - - - - -
26/06:30am 13.6 WSW 3 4 1014.9 - 0.0 - - - - - - -
26/06:00am 13.0 SW 3 4 1014.6 - 0.0 - - - - - - -
26/05:30am 13.2 SW 3 5 1014.1 - 0.0 - - - - - - -
26/05:00am 13.4 SW 4 6 1013.8 - 0.0 - - - - - - -
26/04:30am 13.1 WSW 3 5 1013.6 - 0.0 - - - - - - -
26/04:00am 13.0 WSW 3 5 1013.5 - 0.0 - - - - - - -
26/03:30am 13.4 SW 6 11 1013.4 - 0.0 - - - - - - -
26/03:00am 13.0 WSW 4 7 1013.3 - 0.0 - - - - - - -
26/02:30am 13.0 W 3 5 1013.2 - 0.0 - - - - - - -
26/02:00am 13.6 WSW 4 8 1013.2 - 0.0 - - - - - - -
26/01:30am 13.5 W 4 6 1013.2 - 0.0 - - - - - - -
26/01:00am 13.1 WSW 4 6 1013.1 - 0.0 - - - - - - -
26/12:30am 13.5 WSW 4 7 1013.1 - 0.0 - - - - - - -
26/12:00am 13.2 WSW 5 7 1013.1 - 0.0 - - - - - - -
 
Date/Time
EDT
Temp

°C
Wind Pressure Rain
since 9am
mm
Weather Cloud Vis
km
Sea
Height
m
Swell
Dir
 
Speed
knots
Gust
knots
hPa Trend Height
m
Period
s
Dir
25/11:30pm 12.8 W 3 5 1013.0 - 0.0 - - - - - - -
25/11:00pm 14.4 WSW 4 9 1013.0 - 0.0 - - - - - - -
25/10:30pm 14.3 WSW 4 9 1013.0 - 0.0 - - - - - - -
25/10:00pm 14.1 WSW 5 9 1012.9 - 0.0 - - - - - - -
25/09:30pm 14.5 WSW 7 13 1012.5 - 0.0 - - - - - - -
25/09:00pm 14.3 WSW 6 11 1012.3 - 0.0 - - - - - - -
25/08:30pm 14.7 WSW 7 13 1011.9 - 0.0 - - - - - - -
25/08:00pm 15.4 WSW 8 17 1011.7 - 0.0 - - - - - - -
25/07:30pm 16.1 SW 10 17 1011.3 - 0.0 - - - - - - -
25/07:00pm 16.4 WSW 10 18 1011.0 - 0.0 - - - - - - -
25/06:30pm 16.9 WSW 10 18 1010.6 - 0.0 - - - - - - -
25/06:00pm 16.6 WSW 14 23 1010.3 - 0.0 - - - - - - -
25/05:30pm 15.4 WSW 12 23 1010.1 - 0.0 - - - - - - -
25/05:00pm 17.3 WSW 13 22 1009.7 - 0.0 - - - - - - -
25/04:35pm 16.4 SW 15 26 1009.5 - 0.0 - - - - - - -
25/04:30pm 16.7 SW 14 23 1009.4 - 0.0 - - - - - - -
25/04:00pm 17.7 WSW 14 25 1009.4 - 0.0 - - - - - - -
25/03:30pm 17.6 WSW 12 21 1009.2 - 0.0 - - - - - - -
25/03:00pm 17.0 WSW 12 23 1009.2 - 0.0 - - - - - - -
25/02:30pm 17.9 W 11 21 1008.8 - 0.0 - - - - - - -
25/02:00pm 18.1 WSW 10 17 1008.4 - 0.0 - - - - - - -
25/01:30pm 18.0 WSW 13 21 1008.3 - 0.0 - - - - - - -
25/01:00pm 17.9 WSW 12 21 1008.0 - 0.0 - - - - - - -
25/12:30pm 18.2 WSW 11 21 1007.9 - 0.0 - - - - - - -
25/12:00pm 17.7 WSW 11 17 1007.7 - 0.0 - - - - - - -
25/11:30am 18.6 W 9 16 1007.5 - 0.0 - - - - - - -
25/11:00am 18.0 W 11 20 1007.5 - 0.0 - - - - - - -
25/10:30am 17.6 WSW 10 20 1007.1 - 0.0 - - - - - - -
25/10:00am 17.5 W 9 16 1006.6 - 0.0 - - - - - - -
25/09:30am 16.9 W 7 13 1006.3 - 0.0 - - - - - - -
25/09:00am 15.3 W 5 10 1006.3 - 1.4 - - - - - - -
25/08:30am 14.5 WSW 5 9 1006.1 - 1.4 - - - - - - -
25/08:00am 14.8 W 4 9 1005.7 - 1.4 - - - - - - -
25/07:30am 14.1 WSW 6 9 1005.3 - 1.4 - - - - - - -
25/07:00am 14.6 WSW 5 11 1004.6 - 1.2 - - - - - - -
25/06:30am 14.1 WSW 6 13 1004.1 - 1.2 - - - - - - -
25/06:00am 13.8 WSW 10 20 1003.7 - 1.2 Rain - - - - - -
25/05:30am 15.0 WSW 11 22 1003.2 - 0.0 - - - - - - -
25/05:00am 18.3 NW 6 11 1002.2 - 0.0 - - - - - - -
25/04:30am 18.6 NNW 8 13 1002.0 - 0.0 - - - - - - -
25/04:00am 18.4 NNW 6 11 1001.9 - 0.0 - - - - - - -
25/03:30am 18.3 NNW 5 11 1001.6 - 0.0 - - - - - - -
25/03:00am 17.0 NW 2 3 1001.7 - 0.0 - - - - - - -
25/02:30am 17.6 WSW 2 4 1001.8 - 0.0 - - - - - - -
25/02:00am 17.9 SW 4 7 1002.2 - 0.0 - - - - - - -
25/01:30am 17.9 SSW 4 7 1002.5 - 0.0 - - - - - - -
25/01:00am 17.2 S 3 5 1002.7 - 0.0 - - - - - - -
25/12:30am 17.1 S 3 5 1003.1 - 0.0 - - - - - - -
25/12:00am 17.1 S 3 6 1003.4 - 0.0 - - - - - - -
 
Date/Time
EDT
Temp

°C
Wind Pressure Rain
since 9am
mm
Weather Cloud Vis
km
Sea
Height
m
Swell
Dir
 
Speed
knots
Gust
knots
hPa Trend Height
m
Period
s
Dir
24/11:30pm 17.3 SSE 5 7 1003.5 - 0.0 - - - - - - -
24/11:00pm 17.6 S 5 7 1003.8 - 0.0 - - - - - - -
24/10:30pm 17.8 S 5 8 1003.9 - 0.0 - - - - - - -
24/10:00pm 17.8 S 6 9 1003.7 - 0.0 - - - - - - -
24/09:30pm 18.4 SSE 6 8 1003.6 - 0.0 - - - - - - -
24/09:00pm 18.7 SSE 7 9 1003.3 - 0.0 - - - - - - -
24/08:30pm 19.1 SSE 6 11 1003.0 - 0.0 - - - - - - -
24/08:00pm 20.1 SSE 6 8 1002.6 - 0.0 - - - - - - -
24/07:30pm 21.0 S 7 10 1002.4 - 0.0 - - - - - - -
24/07:00pm 21.6 S 7 12 1002.4 - 0.0 - - - - - - -
24/06:30pm 22.6 S 8 11 1002.1 - 0.0 - - - - - - -
24/06:00pm 22.9 S 7 11 1002.1 - 0.0 - - - - - - -
24/05:30pm 23.8 S 7 9 1002.3 - 0.0 - - - - - - -
24/05:00pm 23.6 S 6 9 1002.2 - 0.0 - - - - - - -
24/04:30pm 23.6 S 5 9 1002.4 - 0.0 - - - - - - -
24/04:00pm 24.3 S 6 10 1002.6 - 0.0 - - - - - - -
24/03:30pm 24.3 S 7 9 1002.8 - 0.0 - - - - - - -
24/03:00pm 23.2 S 7 11 1003.2 - 0.0 - - - - - - -
24/02:30pm 23.0 S 7 12 1003.6 - 0.0 - - - - - - -
24/02:00pm 24.1 S 5 8 1004.0 - 0.0 - - - - - - -
24/01:30pm 24.4 S 6 8 1004.3 - 0.0 - - - - - - -
24/01:00pm 23.8 NE 4 5 1004.3 - 0.0 - - - - - - -
24/12:30pm 23.6 NE 4 5 1004.7 - 0.0 - - - - - - -
24/12:00pm 24.8 ENE 5 7 1004.7 - 0.0 - - - - - - -
24/11:30am 24.5 ENE 5 7 1005.2 - 0.0 - - - - - - -
24/11:00am 23.6 ENE 7 9 1005.4 - 0.0 - - - - - - -
24/10:30am 21.4 ENE 9 11 1005.5 - 0.0 - - - - - - -
24/10:00am 20.6 ENE 5 8 1006.0 - 0.0 - - - - - - -
24/09:30am 20.1 NE 4 6 1006.0 - 0.0 - - - - - - -
24/09:00am 19.7 ENE 4 6 1005.9 - 0.0 - - - - - - -
24/08:30am 19.3 E 5 7 1005.9 - 0.0 - - - - - - -
24/08:00am 18.3 E 5 7 1005.8 - 0.0 - - - - - - -
24/07:30am 17.8 ENE 6 8 1005.9 - 0.0 - - - - - - -
24/07:00am 17.5 E 6 8 1005.8 - 0.0 - - - - - - -
24/06:30am 17.4 ENE 5 7 1005.6 - 0.0 - - - - - - -
24/06:00am 17.3 ENE 5 7 1005.6 - 0.0 - - - - - - -
24/05:30am 17.2 E 6 8 1005.8 - 0.0 - - - - - - -
24/05:00am 17.3 ESE 7 8 1005.7 - 0.0 - - - - - - -
24/04:30am 17.0 ESE 7 9 1005.8 - 0.0 - - - - - - -
24/04:00am 17.2 ESE 6 9 1006.0 - 0.0 - - - - - - -

Other Formats:

Comma delimited format used in spreadsheet applications
http://www.bom.gov.au/fwo/IDV60701/IDV60701.94892.axf

JavaScript Object Notation format (JSON) in row-major order
http://www.bom.gov.au/fwo/IDV60701/IDV60701.94892.json